createdAt,value
2022-11-12T02:05:26.991Z,10.83
2022-11-12T02:15:46.962Z,10.78
2022-11-12T02:26:06.760Z,10.81
2022-11-12T02:36:27.987Z,10.74
2022-11-12T02:46:47.997Z,10.68
2022-11-12T02:57:08.081Z,10.48
2022-11-12T03:07:27.932Z,10.47
2022-11-12T03:17:48.059Z,10.51
2022-11-12T03:28:11.462Z,10.44
2022-11-12T03:38:31.437Z,10.44
2022-11-12T03:48:51.244Z,10.17
2022-11-12T03:59:11.189Z,10.27
2022-11-12T04:09:31.209Z,10.35
2022-11-12T04:20:20.296Z,10.35
2022-11-12T04:30:40.243Z,10.13
2022-11-12T04:41:19.166Z,9.96
2022-11-12T04:51:57.951Z,9.85
2022-11-12T05:02:18.368Z,9.97
2022-11-12T05:12:38.479Z,9.77
2022-11-12T05:23:06.679Z,9.97
2022-11-12T05:33:27.763Z,9.96
2022-11-12T05:43:47.659Z,9.77
2022-11-12T05:54:07.588Z,9.77
2022-11-12T06:04:27.841Z,9.83
2022-11-12T06:14:48.000Z,9.82
2022-11-12T06:25:08.099Z,9.72
2022-11-12T06:35:28.272Z,9.68
2022-11-12T06:45:48.349Z,9.57
2022-11-12T06:56:08.455Z,9.95
2022-11-12T07:06:28.660Z,10.14
2022-11-12T07:16:49.689Z,10.39
2022-11-12T07:27:09.571Z,10.38
2022-11-12T07:37:29.514Z,10.58
2022-11-12T07:47:49.397Z,11.15
2022-11-12T07:58:09.424Z,11.29
2022-11-12T08:08:29.726Z,11.55
2022-11-12T08:18:50.307Z,11.51
2022-11-12T08:29:10.277Z,11.67
2022-11-12T08:39:30.207Z,11.97
2022-11-12T08:49:50.266Z,11.94
2022-11-12T09:00:11.930Z,12.15
2022-11-12T09:10:32.627Z,12.72
2022-11-12T09:20:52.440Z,12.51
2022-11-12T09:31:12.369Z,12.77
2022-11-12T09:41:36.401Z,13.41
2022-11-12T09:52:04.726Z,12.53
2022-11-12T10:02:39.384Z,12.82
2022-11-12T10:13:28.784Z,13.70
2022-11-12T10:23:52.154Z,14.17
2022-11-12T10:34:20.731Z,14.13
2022-11-12T10:44:43.182Z,14.40
2022-11-12T10:55:17.906Z,14.63
2022-11-12T11:05:54.195Z,14.46
2022-11-12T11:16:17.461Z,14.26
2022-11-12T11:26:55.577Z,14.41
2022-11-12T11:37:27.905Z,14.07
2022-11-12T11:48:01.805Z,14.17
2022-11-12T11:58:40.579Z,14.35
2022-11-12T12:09:28.422Z,14.00
2022-11-12T12:20:02.577Z,14.34
2022-11-12T12:30:24.989Z,14.25
2022-11-12T12:40:54.099Z,14.03
2022-11-12T12:51:14.155Z,14.30
2022-11-12T13:01:36.432Z,14.41
2022-11-12T13:12:05.659Z,13.85
2022-11-12T13:22:25.560Z,13.69
2022-11-12T13:32:48.557Z,13.84
2022-11-12T13:43:21.890Z,13.35
2022-11-12T13:53:42.088Z,13.41
2022-11-12T14:04:02.303Z,13.24
2022-11-12T14:14:25.079Z,13.08
2022-11-12T14:24:48.069Z,13.07
2022-11-12T14:35:20.499Z,12.44
2022-11-12T14:45:48.711Z,12.03
2022-11-12T14:56:16.418Z,11.66
2022-11-12T15:06:37.342Z,12.00
2022-11-12T15:17:00.507Z,11.97
2022-11-12T15:27:38.870Z,11.69
2022-11-12T15:38:03.274Z,11.50
2022-11-12T15:48:23.366Z,11.58
2022-11-12T15:58:44.025Z,11.25
2022-11-12T16:09:04.074Z,10.69
2022-11-12T16:19:23.954Z,10.79
2022-11-12T16:29:43.893Z,10.88
2022-11-12T16:40:05.740Z,10.99
2022-11-12T16:50:27.926Z,10.78
2022-11-12T17:00:50.217Z,10.82
2022-11-12T17:11:10.454Z,10.96
2022-11-12T17:21:30.541Z,11.28
2022-11-12T17:31:50.631Z,11.25
2022-11-12T17:42:10.464Z,11.32
2022-11-12T17:52:31.699Z,10.79
2022-11-12T18:02:51.968Z,10.83
2022-11-12T18:13:11.745Z,10.83
2022-11-12T18:23:31.714Z,10.87
2022-11-12T18:33:52.288Z,11.02
2022-11-12T18:44:12.598Z,11.08
2022-11-12T18:54:32.762Z,11.09
2022-11-12T19:04:53.455Z,10.85
2022-11-12T19:15:13.752Z,11.02
2022-11-12T19:25:37.012Z,10.76
2022-11-12T19:35:56.848Z,11.05
2022-11-12T19:46:17.921Z,11.15
2022-11-12T19:56:37.864Z,10.54
2022-11-12T20:06:57.688Z,10.28
2022-11-12T20:17:18.089Z,10.51
2022-11-12T20:27:38.061Z,10.26
2022-11-12T20:37:57.804Z,10.09
2022-11-12T20:48:17.950Z,9.81
2022-11-12T20:58:38.509Z,9.90
2022-11-12T21:08:59.859Z,9.74
2022-11-12T21:19:19.942Z,9.70
2022-11-12T21:29:40.457Z,9.50
2022-11-12T21:40:00.507Z,9.59
2022-11-12T21:50:20.461Z,9.54
2022-11-12T22:00:42.325Z,9.67
2022-11-12T22:11:09.585Z,9.24
2022-11-12T22:21:36.799Z,9.47
2022-11-12T22:31:59.361Z,9.31
2022-11-12T22:42:19.532Z,9.69
2022-11-12T22:52:40.010Z,9.47
2022-11-12T23:02:59.831Z,9.40
2022-11-12T23:13:19.777Z,9.04
2022-11-12T23:23:39.960Z,8.84
2022-11-12T23:34:00.267Z,8.79
2022-11-12T23:44:20.355Z,8.69
2022-11-12T23:54:40.180Z,9.15
